createdAt,value
2022-11-23T00:01:19.785Z,5.85
2022-11-23T00:03:48.951Z,5.85
2022-11-23T00:06:16.948Z,5.89
2022-11-23T00:08:45.732Z,5.90
2022-11-23T00:11:12.851Z,5.86
2022-11-23T00:13:41.245Z,5.85
2022-11-23T00:16:14.072Z,5.80
2022-11-23T00:18:41.004Z,5.88
2022-11-23T00:21:09.824Z,5.90
2022-11-23T00:23:37.711Z,5.91
2022-11-23T00:26:05.583Z,5.95
2022-11-23T00:28:32.684Z,5.83
2022-11-23T00:30:59.724Z,5.99
2022-11-23T00:33:26.664Z,5.98
2022-11-23T00:36:05.749Z,5.97
2022-11-23T00:38:33.409Z,6.00
2022-11-23T00:41:00.992Z,5.99
2022-11-23T00:43:29.338Z,5.98
2022-11-23T00:46:08.201Z,5.98
2022-11-23T00:48:36.124Z,5.96
2022-11-23T00:51:05.565Z,5.87
2022-11-23T00:53:33.485Z,5.84
2022-11-23T00:56:00.502Z,5.82
2022-11-23T00:58:27.566Z,5.82
2022-11-23T01:01:13.179Z,5.77
2022-11-23T01:03:43.403Z,5.75
2022-11-23T01:06:13.483Z,5.71
2022-11-23T01:08:42.043Z,5.63
2022-11-23T01:11:12.667Z,5.65
2022-11-23T01:13:41.622Z,5.63
2022-11-23T01:16:17.194Z,5.54
2022-11-23T01:18:46.646Z,5.56
2022-11-23T01:21:13.723Z,5.53
2022-11-23T01:23:40.767Z,5.51
2022-11-23T01:26:09.804Z,5.47
2022-11-23T01:28:38.934Z,5.41
2022-11-23T01:31:10.603Z,5.47
2022-11-23T01:33:37.432Z,5.48
2022-11-23T01:36:18.848Z,5.48
2022-11-23T01:38:47.442Z,5.46
2022-11-23T01:41:20.828Z,5.48
2022-11-23T01:43:48.443Z,5.46
2022-11-23T01:46:15.391Z,5.47
2022-11-23T01:48:45.441Z,5.47
2022-11-23T01:51:16.763Z,5.48
2022-11-23T01:53:46.260Z,5.42
2022-11-23T01:56:20.445Z,5.42
2022-11-23T01:58:53.456Z,5.36
2022-11-23T02:01:20.518Z,5.37
2022-11-23T02:03:49.591Z,5.38
2022-11-23T02:06:21.657Z,5.34
2022-11-23T02:08:49.243Z,5.33
2022-11-23T02:11:17.424Z,5.37
2022-11-23T02:13:47.733Z,5.34
2022-11-23T02:16:15.147Z,5.31
2022-11-23T02:18:45.164Z,5.17
2022-11-23T02:21:12.924Z,5.33
2022-11-23T02:23:48.375Z,5.30
2022-11-23T02:26:21.309Z,5.29
2022-11-23T02:28:58.523Z,5.28
2022-11-23T02:31:25.567Z,5.22
2022-11-23T02:33:54.769Z,5.18
2022-11-23T02:37:06.511Z,5.11
2022-11-23T02:39:48.086Z,5.12
2022-11-23T02:42:15.170Z,5.08
2022-11-23T02:44:48.980Z,4.99
2022-11-23T02:47:16.514Z,5.05
2022-11-23T02:52:31.174Z,5.02
2022-11-23T02:54:58.095Z,4.99
2022-11-23T02:57:25.072Z,4.90
2022-11-23T02:59:52.044Z,5.01
2022-11-23T03:02:19.130Z,5.02
2022-11-23T03:04:47.165Z,4.66
2022-11-23T03:07:14.226Z,5.01
2022-11-23T03:09:41.413Z,4.95
2022-11-23T03:12:09.164Z,4.95
2022-11-23T03:14:36.185Z,4.97
2022-11-23T03:17:04.325Z,4.93
2022-11-23T03:19:36.804Z,4.96
2022-11-23T03:22:04.365Z,4.92
2022-11-23T03:24:31.885Z,4.96
2022-11-23T03:27:01.197Z,4.92
2022-11-23T03:29:28.861Z,5.01
2022-11-23T03:31:58.502Z,5.03
2022-11-23T03:34:25.517Z,4.79
2022-11-23T03:36:53.357Z,4.98
2022-11-23T03:39:20.581Z,5.02
2022-11-23T03:42:06.168Z,5.10
2022-11-23T03:44:34.982Z,5.12
2022-11-23T03:47:01.920Z,5.12
2022-11-23T03:49:29.612Z,5.11
2022-11-23T03:51:56.879Z,5.12
2022-11-23T03:54:23.921Z,5.09
2022-11-23T03:56:51.056Z,5.13
2022-11-23T03:59:18.522Z,5.17
2022-11-23T04:01:45.442Z,5.09
2022-11-23T04:04:20.576Z,5.04
2022-11-23T04:06:59.137Z,4.98
2022-11-23T04:09:35.541Z,5.05
2022-11-23T04:12:05.616Z,4.95
2022-11-23T04:14:36.270Z,5.11
2022-11-23T04:17:03.506Z,5.14
2022-11-23T04:19:31.346Z,5.19
2022-11-23T04:21:59.542Z,5.18
2022-11-23T04:24:29.221Z,5.20
2022-11-23T04:26:58.900Z,5.21
2022-11-23T04:29:25.897Z,5.15
2022-11-23T04:31:54.576Z,5.18
2022-11-23T04:34:22.326Z,5.16
2022-11-23T04:36:51.552Z,5.13
2022-11-23T04:39:22.251Z,5.12
2022-11-23T04:42:27.708Z,5.11
2022-11-23T04:44:58.663Z,5.18
2022-11-23T04:47:26.011Z,5.21
2022-11-23T04:49:55.699Z,5.10
2022-11-23T04:52:23.574Z,5.20
2022-11-23T04:54:51.148Z,5.23
2022-11-23T04:57:18.243Z,5.25
2022-11-23T04:59:46.210Z,5.29
2022-11-23T05:02:13.341Z,5.30
2022-11-23T05:04:48.079Z,5.28
2022-11-23T05:07:16.963Z,5.33
2022-11-23T05:09:48.894Z,5.33
2022-11-23T05:12:18.164Z,5.30
2022-11-23T05:14:45.101Z,5.35
2022-11-23T05:17:16.142Z,5.37
2022-11-23T05:19:45.455Z,5.36
2022-11-23T05:22:13.435Z,5.31
2022-11-23T05:24:41.775Z,5.34
2022-11-23T05:27:11.695Z,5.29
2022-11-23T05:29:39.413Z,5.29
2022-11-23T05:32:07.933Z,5.22
2022-11-23T05:34:35.377Z,5.29
2022-11-23T05:37:04.346Z,5.29
2022-11-23T05:39:31.844Z,5.25
2022-11-23T05:42:00.811Z,5.30
2022-11-23T05:44:38.364Z,5.32
2022-11-23T05:47:08.771Z,5.31
2022-11-23T05:49:38.184Z,5.34
2022-11-23T05:52:06.257Z,5.33
2022-11-23T05:54:34.654Z,5.29
2022-11-23T05:57:06.809Z,5.32
2022-11-23T05:59:40.164Z,5.29
2022-11-23T06:02:09.215Z,5.30
2022-11-23T06:04:36.503Z,5.27
2022-11-23T06:07:06.549Z,5.22
2022-11-23T06:09:45.538Z,5.31
2022-11-23T06:12:12.920Z,5.29
2022-11-23T06:14:39.996Z,5.27
2022-11-23T06:17:07.053Z,5.22
2022-11-23T06:19:38.635Z,5.26
2022-11-23T06:22:06.144Z,5.26
2022-11-23T06:24:38.689Z,5.24
2022-11-23T06:27:24.654Z,5.26
2022-11-23T06:29:52.697Z,5.29
2022-11-23T06:32:21.143Z,5.33
2022-11-23T06:34:48.131Z,5.30
2022-11-23T06:37:15.533Z,5.36
2022-11-23T06:39:45.885Z,5.38
2022-11-23T06:45:00.816Z,5.40
2022-11-23T06:47:30.867Z,5.42
2022-11-23T06:49:58.221Z,5.44
2022-11-23T06:52:28.772Z,5.46
2022-11-23T06:54:55.856Z,5.50
2022-11-23T06:57:24.693Z,5.53
2022-11-23T06:59:51.721Z,5.54
2022-11-23T07:02:24.642Z,5.58
2022-11-23T07:04:54.772Z,5.60
2022-11-23T07:07:21.974Z,5.62
2022-11-23T07:09:57.761Z,5.61
2022-11-23T07:12:51.680Z,5.67
2022-11-23T07:15:21.062Z,5.72
2022-11-23T07:17:50.414Z,5.75
2022-11-23T07:20:19.521Z,5.76
2022-11-23T07:22:47.108Z,5.77
2022-11-23T07:25:18.775Z,5.78
2022-11-23T07:27:45.775Z,5.82
2022-11-23T07:30:13.485Z,5.87
2022-11-23T07:32:40.492Z,5.85
2022-11-23T07:35:08.572Z,5.88
2022-11-23T07:37:38.120Z,5.90
2022-11-23T07:40:06.193Z,5.90
2022-11-23T07:42:39.879Z,5.97
2022-11-23T07:45:12.325Z,6.01
2022-11-23T07:47:43.794Z,6.07
2022-11-23T07:50:13.310Z,6.18
2022-11-23T07:52:41.338Z,6.23
2022-11-23T07:55:09.027Z,6.25
2022-11-23T07:57:35.956Z,6.29
2022-11-23T08:00:03.855Z,6.32
2022-11-23T08:02:52.820Z,6.44
2022-11-23T08:05:26.746Z,6.48
2022-11-23T08:08:03.586Z,6.64
2022-11-23T08:10:33.375Z,6.77
2022-11-23T08:13:02.291Z,6.87
2022-11-23T08:15:29.469Z,6.96
2022-11-23T08:17:57.865Z,7.05
2022-11-23T08:20:26.056Z,7.13
2022-11-23T08:22:56.111Z,7.20
2022-11-23T08:25:24.759Z,7.27
2022-11-23T08:28:03.093Z,7.45
2022-11-23T08:30:32.372Z,7.48
2022-11-23T08:32:59.694Z,7.43
2022-11-23T08:35:26.668Z,7.44
2022-11-23T08:37:53.614Z,7.49
2022-11-23T08:40:25.111Z,7.57
2022-11-23T08:42:52.941Z,7.62
2022-11-23T08:45:20.968Z,7.69
2022-11-23T08:47:47.949Z,7.72
2022-11-23T08:50:15.374Z,7.77
2022-11-23T08:52:42.274Z,7.82
2022-11-23T08:55:09.273Z,7.89
2022-11-23T08:57:37.075Z,7.96
2022-11-23T09:00:05.944Z,8.00
2022-11-23T09:02:33.141Z,8.03
2022-11-23T09:05:01.073Z,8.07
2022-11-23T09:07:28.515Z,8.07
2022-11-23T09:09:55.529Z,8.07
2022-11-23T09:12:22.501Z,8.05
2022-11-23T09:14:49.374Z,8.07
2022-11-23T09:17:16.248Z,8.03
2022-11-23T09:19:43.258Z,7.90
2022-11-23T09:22:10.428Z,7.83
2022-11-23T09:24:37.647Z,7.80
2022-11-23T09:27:05.178Z,7.81
2022-11-23T09:29:32.104Z,7.77
2022-11-23T09:31:59.074Z,7.78
2022-11-23T09:34:26.012Z,7.87
2022-11-23T09:36:53.533Z,7.88
2022-11-23T09:39:20.497Z,7.96
2022-11-23T09:42:06.493Z,7.93
2022-11-23T09:44:39.497Z,7.94
2022-11-23T09:47:25.428Z,7.96
2022-11-23T09:50:07.723Z,7.97
2022-11-23T09:52:40.733Z,7.98
2022-11-23T09:55:16.184Z,7.99
2022-11-23T09:57:46.126Z,8.00
2022-11-23T10:00:17.893Z,8.02
2022-11-23T10:02:44.889Z,8.04
2022-11-23T10:05:26.334Z,8.01
2022-11-23T10:08:06.759Z,7.92
2022-11-23T10:10:39.054Z,7.84
2022-11-23T10:13:28.442Z,7.80
2022-11-23T10:16:29.999Z,7.79
2022-11-23T10:19:02.205Z,7.81
2022-11-23T10:22:00.514Z,7.83
2022-11-23T10:24:35.813Z,7.83
2022-11-23T10:27:03.441Z,7.83
2022-11-23T10:29:37.624Z,7.74
2022-11-23T10:32:26.893Z,7.72
2022-11-23T10:35:03.535Z,7.73
2022-11-23T10:37:32.346Z,7.71
2022-11-23T10:39:59.368Z,7.69
2022-11-23T10:42:33.954Z,7.65
2022-11-23T10:45:04.787Z,7.63
2022-11-23T10:47:52.015Z,7.67
2022-11-23T10:50:30.671Z,7.73
2022-11-23T10:53:01.466Z,7.79
2022-11-23T10:55:32.494Z,7.79
2022-11-23T10:58:00.584Z,7.73
2022-11-23T11:00:31.295Z,7.71
2022-11-23T11:02:59.781Z,7.64
2022-11-23T11:06:06.868Z,7.49
2022-11-23T11:08:21.182Z,7.52
2022-11-23T11:10:57.314Z,7.31
2022-11-23T11:13:30.442Z,7.53
2022-11-23T11:16:19.103Z,7.49
2022-11-23T11:18:46.024Z,7.56
2022-11-23T11:21:35.311Z,7.52
2022-11-23T11:24:06.009Z,7.41
2022-11-23T11:26:36.102Z,7.43
2022-11-23T11:29:05.545Z,7.42
2022-11-23T11:31:51.054Z,7.51
2022-11-23T11:34:24.462Z,7.59
2022-11-23T11:36:54.335Z,7.62
2022-11-23T11:39:32.907Z,7.66
2022-11-23T11:42:04.757Z,7.66
2022-11-23T11:44:37.126Z,7.68
2022-11-23T11:47:26.481Z,7.70
2022-11-23T11:49:58.039Z,7.67
2022-11-23T11:52:30.795Z,7.77
2022-11-23T11:55:22.841Z,7.78
2022-11-23T11:57:51.486Z,7.87
2022-11-23T12:00:20.673Z,7.81
2022-11-23T12:03:02.670Z,7.87
2022-11-23T12:05:50.027Z,7.92
2022-11-23T12:08:46.311Z,8.01
2022-11-23T12:11:13.831Z,8.09
2022-11-23T12:13:44.624Z,8.15
2022-11-23T12:17:10.253Z,8.22
2022-11-23T12:19:50.743Z,8.22
2022-11-23T12:22:45.176Z,8.27
2022-11-23T12:25:23.062Z,8.36
2022-11-23T12:27:53.054Z,8.41
2022-11-23T12:30:57.069Z,8.40
2022-11-23T12:33:34.026Z,8.40
2022-11-23T12:36:28.974Z,8.45
2022-11-23T12:39:28.420Z,8.47
2022-11-23T12:42:10.352Z,8.52
2022-11-23T12:44:46.902Z,8.55
2022-11-23T12:47:24.738Z,8.60
2022-11-23T12:49:58.739Z,8.67
2022-11-23T12:52:46.715Z,8.70
2022-11-23T12:55:30.067Z,8.68
2022-11-23T12:58:06.014Z,8.71
2022-11-23T13:00:40.089Z,8.75
2022-11-23T13:03:59.542Z,8.76
2022-11-23T13:06:29.347Z,8.87
2022-11-23T13:09:18.809Z,8.99
2022-11-23T13:12:02.858Z,9.05
2022-11-23T13:15:02.218Z,9.10
2022-11-23T13:17:53.055Z,9.06
2022-11-23T13:20:54.095Z,9.06
2022-11-23T13:23:23.693Z,8.95
2022-11-23T13:26:24.323Z,9.10
2022-11-23T13:28:54.016Z,9.09
2022-11-23T13:31:33.806Z,9.06
2022-11-23T13:34:06.663Z,9.07
2022-11-23T13:37:11.757Z,8.87
2022-11-23T13:39:47.980Z,8.93
2022-11-23T13:42:15.108Z,8.82
2022-11-23T13:44:42.051Z,8.79
2022-11-23T13:47:16.301Z,8.77
2022-11-23T13:49:52.507Z,8.74
2022-11-23T13:52:24.322Z,8.72
2022-11-23T13:55:07.164Z,8.73
2022-11-23T13:57:40.804Z,8.67
2022-11-23T14:00:45.516Z,8.65
2022-11-23T14:03:55.580Z,8.68
2022-11-23T14:06:41.482Z,8.69
2022-11-23T14:09:39.907Z,8.71
2022-11-23T14:12:27.538Z,8.71
2022-11-23T14:15:12.593Z,8.72
2022-11-23T14:18:04.175Z,8.70
2022-11-23T14:20:50.545Z,8.67
2022-11-23T14:23:33.626Z,8.66
2022-11-23T14:26:39.455Z,8.61
2022-11-23T14:29:31.827Z,8.63
2022-11-23T14:32:20.394Z,8.60
2022-11-23T14:34:50.495Z,8.55
2022-11-23T14:37:48.604Z,8.50
2022-11-23T14:40:28.654Z,8.48
2022-11-23T14:42:57.396Z,8.48
2022-11-23T14:45:30.315Z,8.48
2022-11-23T14:47:57.676Z,8.48
2022-11-23T14:50:29.466Z,8.45
2022-11-23T14:52:58.489Z,8.41
2022-11-23T14:55:29.581Z,8.38
2022-11-23T14:58:02.753Z,8.35
2022-11-23T15:00:40.577Z,8.30
2022-11-23T15:03:49.260Z,8.29
2022-11-23T15:06:17.740Z,8.26
2022-11-23T15:09:34.977Z,8.29
2022-11-23T15:12:48.727Z,8.22
2022-11-23T15:15:24.505Z,8.20
2022-11-23T15:18:02.680Z,8.16
2022-11-23T15:20:34.905Z,8.13
2022-11-23T15:23:03.238Z,8.12
2022-11-23T15:25:31.786Z,8.12
2022-11-23T15:27:58.825Z,8.11
2022-11-23T15:30:30.962Z,8.08
2022-11-23T15:33:06.613Z,8.06
2022-11-23T15:35:36.879Z,8.02
2022-11-23T15:38:12.015Z,7.98
2022-11-23T15:40:44.343Z,7.95
2022-11-23T15:43:18.156Z,7.93
2022-11-23T15:45:45.169Z,7.87
2022-11-23T15:48:27.358Z,7.83
2022-11-23T15:50:56.895Z,7.75
2022-11-23T15:53:49.463Z,7.76
2022-11-23T15:56:23.301Z,7.68
2022-11-23T15:58:52.419Z,7.62
2022-11-23T16:01:19.926Z,7.58
2022-11-23T16:04:01.140Z,7.59
2022-11-23T16:06:42.471Z,7.53
2022-11-23T16:09:51.867Z,7.52
2022-11-23T16:12:26.096Z,7.32
2022-11-23T16:14:55.374Z,7.45
2022-11-23T16:17:25.099Z,7.44
2022-11-23T16:19:54.816Z,7.38
2022-11-23T16:22:31.937Z,7.37
2022-11-23T16:25:09.295Z,7.24
2022-11-23T16:27:37.384Z,7.25
2022-11-23T16:30:05.023Z,7.24
2022-11-23T16:32:32.820Z,7.21
2022-11-23T16:35:19.496Z,7.17
2022-11-23T16:37:48.376Z,7.12
2022-11-23T16:40:15.779Z,7.09
2022-11-23T16:42:43.847Z,7.05
2022-11-23T16:45:11.463Z,6.97
2022-11-23T16:47:55.694Z,6.94
2022-11-23T16:50:24.253Z,6.92
2022-11-23T16:52:52.260Z,6.83
2022-11-23T16:55:19.382Z,6.85
2022-11-23T16:57:47.408Z,6.81
2022-11-23T17:00:20.914Z,6.78
2022-11-23T17:02:48.306Z,6.75
2022-11-23T17:05:17.237Z,6.76
2022-11-23T17:07:44.720Z,6.72
2022-11-23T17:10:16.514Z,6.69
2022-11-23T17:12:56.765Z,6.67
2022-11-23T17:15:25.375Z,6.63
2022-11-23T17:17:52.414Z,6.60
2022-11-23T17:20:22.067Z,6.58
2022-11-23T17:22:52.060Z,6.57
2022-11-23T17:25:19.948Z,6.51
2022-11-23T17:27:47.375Z,6.49
2022-11-23T17:30:22.147Z,6.48
2022-11-23T17:32:49.935Z,6.46
2022-11-23T17:35:18.206Z,6.43
2022-11-23T17:37:46.695Z,6.26
2022-11-23T17:40:16.415Z,6.41
2022-11-23T17:42:43.544Z,6.39
2022-11-23T17:45:12.118Z,6.35
2022-11-23T17:47:41.136Z,6.36
2022-11-23T17:50:13.785Z,6.32
2022-11-23T17:52:44.395Z,6.28
2022-11-23T17:55:12.655Z,6.30
2022-11-23T17:57:39.865Z,6.23
2022-11-23T18:00:15.842Z,6.29
2022-11-23T18:02:43.537Z,6.28
2022-11-23T18:05:15.256Z,6.27
2022-11-23T18:07:47.073Z,6.27
2022-11-23T18:10:14.175Z,6.19
2022-11-23T18:12:41.223Z,6.26
2022-11-23T18:15:09.328Z,6.26
2022-11-23T18:17:36.910Z,6.26
2022-11-23T18:20:04.464Z,6.22
2022-11-23T18:22:31.426Z,6.25
2022-11-23T18:24:58.797Z,6.22
2022-11-23T18:27:26.494Z,6.27
2022-11-23T18:29:53.464Z,6.26
2022-11-23T18:32:20.414Z,6.26
2022-11-23T18:34:47.377Z,6.27
2022-11-23T18:37:14.666Z,6.25
2022-11-23T18:39:41.695Z,6.27
2022-11-23T18:42:09.488Z,6.26
2022-11-23T18:44:36.637Z,6.22
2022-11-23T18:47:03.694Z,6.21
2022-11-23T18:49:30.896Z,6.21
2022-11-23T18:51:58.718Z,6.21
2022-11-23T18:54:26.139Z,6.20
2022-11-23T18:56:53.697Z,6.16
2022-11-23T18:59:42.517Z,6.12
2022-11-23T19:02:10.627Z,6.15
2022-11-23T19:04:43.296Z,6.17
2022-11-23T19:07:10.787Z,6.19
2022-11-23T19:09:38.235Z,6.20
2022-11-23T19:12:07.665Z,6.20
2022-11-23T19:14:34.636Z,6.17
2022-11-23T19:17:02.064Z,6.22
2022-11-23T19:19:29.057Z,6.22
2022-11-23T19:21:55.937Z,6.17
2022-11-23T19:24:23.446Z,6.19
2022-11-23T19:26:50.957Z,6.18
2022-11-23T19:29:32.781Z,6.11
2022-11-23T19:32:00.121Z,6.04
2022-11-23T19:34:27.546Z,5.78
2022-11-23T19:36:54.981Z,5.87
2022-11-23T19:39:22.676Z,5.82
2022-11-23T19:41:49.775Z,5.80
2022-11-23T19:44:16.735Z,5.78
2022-11-23T19:46:43.778Z,5.81
2022-11-23T19:49:11.402Z,5.78
2022-11-23T19:51:40.504Z,5.75
2022-11-23T19:54:10.586Z,5.70
2022-11-23T19:56:37.855Z,5.80
2022-11-23T19:59:06.579Z,5.85
2022-11-23T20:01:34.291Z,5.90
2022-11-23T20:04:09.561Z,5.94
2022-11-23T20:06:41.548Z,5.94
2022-11-23T20:09:09.914Z,6.02
2022-11-23T20:11:40.551Z,6.04
2022-11-23T20:14:08.267Z,6.05
2022-11-23T20:16:35.933Z,6.09
2022-11-23T20:19:07.064Z,6.08
2022-11-23T20:21:36.316Z,6.02
2022-11-23T20:24:07.328Z,5.99
2022-11-23T20:26:37.533Z,5.92
2022-11-23T20:29:06.503Z,5.86
2022-11-23T20:31:34.377Z,5.80
2022-11-23T20:34:06.469Z,5.80
2022-11-23T20:36:36.088Z,5.80
2022-11-23T20:39:07.557Z,5.77
2022-11-23T20:41:38.076Z,5.73
2022-11-23T20:44:07.926Z,5.76
2022-11-23T20:49:22.014Z,5.85
2022-11-23T20:51:49.441Z,5.87
2022-11-23T20:54:16.574Z,5.83
2022-11-23T20:56:43.545Z,5.91
2022-11-23T20:59:13.482Z,5.91
2022-11-23T21:01:41.067Z,5.84
2022-11-23T21:04:09.522Z,5.71
2022-11-23T21:06:39.270Z,5.86
2022-11-23T21:09:11.665Z,5.87
2022-11-23T21:11:57.341Z,5.86
2022-11-23T21:14:28.078Z,5.80
2022-11-23T21:16:59.061Z,5.76
2022-11-23T21:19:30.434Z,5.55
2022-11-23T21:21:59.294Z,5.72
2022-11-23T21:24:27.035Z,5.65
2022-11-23T21:26:55.176Z,5.68
2022-11-23T21:29:22.712Z,5.69
2022-11-23T21:31:50.301Z,5.63
2022-11-23T21:34:20.453Z,5.66
2022-11-23T21:36:50.283Z,5.64
2022-11-23T21:39:17.864Z,5.70
2022-11-23T21:41:47.735Z,5.61
2022-11-23T21:44:14.814Z,5.47
2022-11-23T21:46:42.589Z,5.44
2022-11-23T21:49:10.893Z,5.36
2022-11-23T21:51:38.372Z,5.29
2022-11-23T21:54:08.104Z,5.25
2022-11-23T21:56:35.054Z,5.16
2022-11-23T21:59:02.150Z,5.04
2022-11-23T22:01:32.565Z,4.98
2022-11-23T22:04:09.139Z,4.87
2022-11-23T22:06:38.653Z,4.78
2022-11-23T22:09:07.853Z,4.70
2022-11-23T22:11:36.245Z,4.59
2022-11-23T22:14:06.174Z,4.60
2022-11-23T22:16:35.171Z,4.54
2022-11-23T22:19:03.615Z,4.47
2022-11-23T22:21:35.934Z,4.36
2022-11-23T22:24:04.735Z,4.23
2022-11-23T22:26:31.694Z,4.22
2022-11-23T22:29:06.364Z,4.16
2022-11-23T22:31:35.332Z,4.13
2022-11-23T22:34:04.432Z,4.01
2022-11-23T22:36:31.717Z,3.98
2022-11-23T22:39:04.254Z,3.91
2022-11-23T22:41:37.532Z,3.84
2022-11-23T22:44:06.727Z,3.76
2022-11-23T22:46:33.802Z,3.67
2022-11-23T22:49:02.037Z,3.61
2022-11-23T22:51:30.092Z,3.53
2022-11-23T22:54:00.277Z,3.48
2022-11-23T22:56:28.962Z,3.47
2022-11-23T22:58:56.427Z,3.35
2022-11-23T23:01:26.822Z,3.29
2022-11-23T23:03:58.541Z,3.08
2022-11-23T23:06:28.738Z,3.18
2022-11-23T23:08:58.097Z,2.95
2022-11-23T23:11:28.367Z,3.08
2022-11-23T23:13:55.621Z,2.99
2022-11-23T23:16:22.876Z,2.78
2022-11-23T23:18:50.405Z,2.85
2022-11-23T23:21:20.249Z,2.82
2022-11-23T23:23:49.263Z,2.75
2022-11-23T23:26:18.148Z,2.68
2022-11-23T23:28:45.626Z,2.68
2022-11-23T23:31:16.375Z,2.62
2022-11-23T23:33:44.838Z,2.62
2022-11-23T23:36:17.344Z,2.57
2022-11-23T23:38:44.549Z,2.59
2022-11-23T23:41:13.014Z,2.50
2022-11-23T23:43:40.342Z,2.49
2022-11-23T23:46:09.806Z,2.54
2022-11-23T23:48:38.762Z,2.54
2022-11-23T23:51:20.259Z,2.55
2022-11-23T23:53:47.661Z,2.53
2022-11-23T23:56:17.768Z,2.51
2022-11-23T23:58:45.054Z,2.49
